createdAt,value
2022-11-01T00:00:57.000Z,98297
2022-11-01T00:02:23.000Z,98295
2022-11-01T00:04:30.000Z,98290
2022-11-01T00:05:56.000Z,98285
2022-11-01T00:08:02.000Z,98285
2022-11-01T00:09:29.000Z,98284
2022-11-01T00:11:36.000Z,98290
2022-11-01T00:13:02.000Z,98290
2022-11-01T00:15:09.000Z,98289
2022-11-01T00:18:00.000Z,98288
2022-11-01T00:19:26.000Z,98292
2022-11-01T00:21:33.000Z,98282
2022-11-01T00:22:59.000Z,98281
2022-11-01T00:25:06.000Z,98281
2022-11-01T00:26:33.000Z,98277
2022-11-01T00:28:39.000Z,98277
2022-11-01T00:30:05.000Z,98273
2022-11-01T00:32:11.000Z,98277
2022-11-01T00:33:38.000Z,98274
2022-11-01T00:35:44.000Z,98271
2022-11-01T00:37:11.000Z,98275
2022-11-01T00:39:17.000Z,98276
2022-11-01T00:40:43.000Z,98277
2022-11-01T00:42:49.000Z,98276
2022-11-01T00:44:16.000Z,98273
2022-11-01T00:46:22.000Z,98270
2022-11-01T00:47:48.000Z,98268
2022-11-01T00:49:54.000Z,98264
2022-11-01T00:51:21.000Z,98268
2022-11-01T00:53:27.000Z,98274
2022-11-01T00:56:18.000Z,98266
2022-11-01T00:57:45.000Z,98262
2022-11-01T00:59:51.000Z,98261
2022-11-01T01:01:17.000Z,98266
2022-11-01T01:03:24.000Z,98268
2022-11-01T01:04:50.000Z,98262
2022-11-01T01:06:56.000Z,98255
2022-11-01T01:08:23.000Z,98248
2022-11-01T01:10:29.000Z,98237
2022-11-01T01:11:55.000Z,98233
2022-11-01T01:14:01.000Z,98230
2022-11-01T01:15:28.000Z,98232
2022-11-01T01:17:34.000Z,98237
2022-11-01T01:19:01.000Z,98241
2022-11-01T01:21:07.000Z,98251
2022-11-01T01:22:33.000Z,98248
2022-11-01T01:24:39.000Z,98248
2022-11-01T01:26:06.000Z,98252
2022-11-01T01:28:12.000Z,98245
2022-11-01T01:29:38.000Z,98247
2022-11-01T01:31:44.000Z,98246
2022-11-01T01:34:36.000Z,98241
2022-11-01T01:36:02.000Z,98233
2022-11-01T01:38:09.000Z,98234
2022-11-01T01:39:35.000Z,98239
2022-11-01T01:41:41.000Z,98247
2022-11-01T01:43:08.000Z,98247
2022-11-01T01:45:14.000Z,98243
2022-11-01T01:46:40.000Z,98240
2022-11-01T01:48:46.000Z,98240
2022-11-01T01:50:13.000Z,98241
2022-11-01T01:52:19.000Z,98240
2022-11-01T01:53:45.000Z,98240
2022-11-01T01:55:52.000Z,98233
2022-11-01T01:57:18.000Z,98232
2022-11-01T01:59:24.000Z,98231
2022-11-01T02:00:51.000Z,98233
2022-11-01T02:02:57.000Z,98230
2022-11-01T02:04:24.000Z,98229
2022-11-01T02:06:30.000Z,98227
2022-11-01T02:07:56.000Z,98227
2022-11-01T02:10:02.000Z,98225
2022-11-01T02:12:53.000Z,98219
2022-11-01T02:14:20.000Z,98218
2022-11-01T02:16:26.000Z,98213
2022-11-01T02:17:52.000Z,98210
2022-11-01T02:19:58.000Z,98213
2022-11-01T02:21:25.000Z,98213
2022-11-01T02:23:31.000Z,98212
2022-11-01T02:24:58.000Z,98214
2022-11-01T02:27:04.000Z,98212
2022-11-01T02:28:30.000Z,98203
2022-11-01T02:30:36.000Z,98192
2022-11-01T02:32:03.000Z,98194
2022-11-01T02:34:09.000Z,98187
2022-11-01T02:35:35.000Z,98181
2022-11-01T02:37:42.000Z,98172
2022-11-01T02:39:08.000Z,98171
2022-11-01T02:41:14.000Z,98173
2022-11-01T02:42:41.000Z,98172
2022-11-01T02:44:47.000Z,98169
2022-11-01T02:46:14.000Z,98167
2022-11-01T02:48:20.000Z,98162
2022-11-01T02:51:11.000Z,98180
2022-11-01T02:52:37.000Z,98186
2022-11-01T02:54:43.000Z,98182
2022-11-01T02:56:10.000Z,98188
2022-11-01T02:58:16.000Z,98188
2022-11-01T02:59:42.000Z,98184
2022-11-01T03:01:49.000Z,98189
2022-11-01T03:03:15.000Z,98189
2022-11-01T03:05:21.000Z,98188
2022-11-01T03:06:48.000Z,98189
2022-11-01T03:08:54.000Z,98185
2022-11-01T03:10:21.000Z,98186
2022-11-01T03:13:53.000Z,98180
2022-11-01T03:15:59.000Z,98191
2022-11-01T03:17:26.000Z,98194
2022-11-01T03:19:32.000Z,98201
2022-11-01T03:20:58.000Z,98195
2022-11-01T03:23:05.000Z,98192
2022-11-01T03:24:31.000Z,98190
2022-11-01T03:26:38.000Z,98194
2022-11-01T03:29:29.000Z,98197
2022-11-01T03:30:55.000Z,98198
2022-11-01T03:33:01.000Z,98197
2022-11-01T03:34:28.000Z,98197
2022-11-01T03:36:35.000Z,98199
2022-11-01T03:38:01.000Z,98201
2022-11-01T03:40:07.000Z,98205
2022-11-01T03:41:34.000Z,98207
2022-11-01T03:43:40.000Z,98208
2022-11-01T03:45:06.000Z,98207
2022-11-01T03:47:13.000Z,98205
2022-11-01T03:48:39.000Z,98208
2022-11-01T03:50:45.000Z,98209
2022-11-01T03:52:12.000Z,98203
2022-11-01T03:54:18.000Z,98211
2022-11-01T03:55:45.000Z,98216
2022-11-01T03:57:51.000Z,98214
2022-11-01T03:59:17.000Z,98219
2022-11-01T04:01:23.000Z,98224
2022-11-01T04:02:50.000Z,98229
2022-11-01T04:04:56.000Z,98232
2022-11-01T04:07:47.000Z,98239
2022-11-01T04:09:14.000Z,98247
2022-11-01T04:11:20.000Z,98251
2022-11-01T04:12:46.000Z,98250
2022-11-01T04:14:52.000Z,98250
2022-11-01T04:16:19.000Z,98255
2022-11-01T04:18:25.000Z,98256
2022-11-01T04:19:52.000Z,98254
2022-11-01T04:21:58.000Z,98255
2022-11-01T04:23:24.000Z,98257
2022-11-01T04:25:31.000Z,98268
2022-11-01T04:26:57.000Z,98269
2022-11-01T04:29:03.000Z,98270
2022-11-01T04:30:30.000Z,98273
2022-11-01T04:32:36.000Z,98269
2022-11-01T04:34:02.000Z,98267
2022-11-01T04:36:08.000Z,98269
2022-11-01T04:37:35.000Z,98271
2022-11-01T04:39:41.000Z,98275
2022-11-01T04:41:08.000Z,98273
2022-11-01T04:43:14.000Z,98274
2022-11-01T04:46:05.000Z,98274
2022-11-01T04:47:31.000Z,98269
2022-11-01T04:49:37.000Z,98269
2022-11-01T04:51:04.000Z,98277
2022-11-01T04:53:10.000Z,98285
2022-11-01T04:54:36.000Z,98289
2022-11-01T04:56:43.000Z,98285
2022-11-01T04:58:09.000Z,98284
2022-11-01T05:00:15.000Z,98285
2022-11-01T05:01:42.000Z,98288
2022-11-01T05:03:48.000Z,98292
2022-11-01T05:05:14.000Z,98289
2022-11-01T05:07:20.000Z,98295
2022-11-01T05:08:47.000Z,98299
2022-11-01T05:10:53.000Z,98295
2022-11-01T05:12:20.000Z,98302
2022-11-01T05:14:26.000Z,98301
2022-11-01T05:15:52.000Z,98298
2022-11-01T05:18:24.000Z,98305
2022-11-01T05:19:51.000Z,98302
2022-11-01T05:21:57.000Z,98294
2022-11-01T05:24:48.000Z,98300
2022-11-01T05:26:15.000Z,98302
2022-11-01T05:28:21.000Z,98301
2022-11-01T05:29:47.000Z,98298
2022-11-01T05:31:53.000Z,98300
2022-11-01T05:33:20.000Z,98302
2022-11-01T05:35:26.000Z,98306
2022-11-01T05:36:52.000Z,98308
2022-11-01T05:38:58.000Z,98311
2022-11-01T05:40:25.000Z,98311
2022-11-01T05:42:31.000Z,98313
2022-11-01T05:43:58.000Z,98315
2022-11-01T05:46:04.000Z,98317
2022-11-01T05:47:30.000Z,98319
2022-11-01T05:49:36.000Z,98313
2022-11-01T05:51:03.000Z,98317
2022-11-01T05:53:09.000Z,98320
2022-11-01T05:54:36.000Z,98323
2022-11-01T05:56:42.000Z,98323
2022-11-01T05:58:08.000Z,98328
2022-11-01T06:00:14.000Z,98322
2022-11-01T06:03:06.000Z,98317
2022-11-01T06:04:33.000Z,98312
2022-11-01T06:06:39.000Z,98315
2022-11-01T06:08:05.000Z,98320
2022-11-01T06:10:12.000Z,98310
2022-11-01T06:11:38.000Z,98313
2022-11-01T06:13:47.000Z,98316
2022-11-01T06:15:14.000Z,98317
2022-11-01T06:17:20.000Z,98311
2022-11-01T06:18:46.000Z,98314
2022-11-01T06:20:53.000Z,98310
2022-11-01T06:22:19.000Z,98312
2022-11-01T06:24:25.000Z,98318
2022-11-01T06:25:52.000Z,98315
2022-11-01T06:27:58.000Z,98310
2022-11-01T06:29:25.000Z,98303
2022-11-01T06:31:31.000Z,98310
2022-11-01T06:32:58.000Z,98313
2022-11-01T06:35:04.000Z,98335
2022-11-01T06:36:30.000Z,98340
2022-11-01T06:38:36.000Z,98351
2022-11-01T06:41:28.000Z,98346
2022-11-01T06:42:54.000Z,98357
2022-11-01T06:45:00.000Z,98355
2022-11-01T06:46:27.000Z,98353
2022-11-01T06:48:33.000Z,98357
2022-11-01T06:50:00.000Z,98360
2022-11-01T06:52:06.000Z,98362
2022-11-01T06:53:32.000Z,98361
2022-11-01T06:55:38.000Z,98361
2022-11-01T06:57:05.000Z,98359
2022-11-01T06:59:11.000Z,98364
2022-11-01T07:00:37.000Z,98366
2022-11-01T07:02:44.000Z,98374
2022-11-01T07:06:17.000Z,98384
2022-11-01T07:07:44.000Z,98382
2022-11-01T07:09:50.000Z,98390
2022-11-01T07:11:16.000Z,98390
2022-11-01T07:13:23.000Z,98389
2022-11-01T07:14:49.000Z,98392
2022-11-01T07:16:55.000Z,98392
2022-11-01T07:19:47.000Z,98394
2022-11-01T07:21:13.000Z,98401
2022-11-01T07:23:19.000Z,98406
2022-11-01T07:24:46.000Z,98411
2022-11-01T07:26:52.000Z,98416
2022-11-01T07:28:19.000Z,98418
2022-11-01T07:30:25.000Z,98417
2022-11-01T07:31:51.000Z,98421
2022-11-01T07:33:57.000Z,98417
2022-11-01T07:35:24.000Z,98417
2022-11-01T07:37:30.000Z,98419
2022-11-01T07:38:56.000Z,98420
2022-11-01T07:41:03.000Z,98423
2022-11-01T07:42:29.000Z,98420
2022-11-01T07:44:35.000Z,98427
2022-11-01T07:46:02.000Z,98433
2022-11-01T07:48:08.000Z,98438
2022-11-01T07:49:34.000Z,98443
2022-11-01T07:51:40.000Z,98443
2022-11-01T07:53:07.000Z,98441
2022-11-01T07:55:13.000Z,98451
2022-11-01T07:58:05.000Z,98450
2022-11-01T07:59:32.000Z,98453
2022-11-01T08:01:38.000Z,98448
2022-11-01T08:03:05.000Z,98454
2022-11-01T08:05:11.000Z,98457
2022-11-01T08:06:38.000Z,98452
2022-11-01T08:08:44.000Z,98456
2022-11-01T08:10:10.000Z,98460
2022-11-01T08:12:16.000Z,98459
2022-11-01T08:13:43.000Z,98454
2022-11-01T08:15:49.000Z,98450
2022-11-01T08:17:16.000Z,98456
2022-11-01T08:19:22.000Z,98465
2022-11-01T08:20:48.000Z,98467
2022-11-01T08:22:54.000Z,98470
2022-11-01T08:24:21.000Z,98468
2022-11-01T08:26:27.000Z,98473
2022-11-01T08:27:54.000Z,98475
2022-11-01T08:30:00.000Z,98473
2022-11-01T08:31:26.000Z,98479
2022-11-01T08:33:32.000Z,98484
2022-11-01T08:36:24.000Z,98477
2022-11-01T08:37:50.000Z,98483
2022-11-01T08:39:56.000Z,98481
2022-11-01T08:41:23.000Z,98486
2022-11-01T08:43:29.000Z,98485
2022-11-01T08:44:56.000Z,98490
2022-11-01T08:47:02.000Z,98487
2022-11-01T08:48:28.000Z,98492
2022-11-01T08:50:34.000Z,98492
2022-11-01T08:52:01.000Z,98501
2022-11-01T08:54:07.000Z,98494
2022-11-01T08:55:33.000Z,98502
2022-11-01T08:57:44.000Z,98488
2022-11-01T08:59:10.000Z,98493
2022-11-01T09:01:16.000Z,98491
2022-11-01T09:02:43.000Z,98492
2022-11-01T09:04:49.000Z,98490
2022-11-01T09:06:16.000Z,98489
2022-11-01T09:08:22.000Z,98489
2022-11-01T09:09:48.000Z,98490
2022-11-01T09:11:54.000Z,98490
2022-11-01T09:14:45.000Z,98497
2022-11-01T09:16:12.000Z,98497
2022-11-01T09:18:18.000Z,98496
2022-11-01T09:19:44.000Z,98500
2022-11-01T09:21:51.000Z,98498
2022-11-01T09:23:17.000Z,98503
2022-11-01T09:25:23.000Z,98515
2022-11-01T09:26:50.000Z,98514
2022-11-01T09:28:56.000Z,98518
2022-11-01T09:30:22.000Z,98520
2022-11-01T09:32:29.000Z,98513
2022-11-01T09:33:55.000Z,98515
2022-11-01T09:36:01.000Z,98519
2022-11-01T09:37:28.000Z,98512
2022-11-01T09:39:34.000Z,98518
2022-11-01T09:41:01.000Z,98522
2022-11-01T09:43:07.000Z,98521
2022-11-01T09:44:34.000Z,98518
2022-11-01T09:46:40.000Z,98524
2022-11-01T09:48:07.000Z,98524
2022-11-01T09:50:13.000Z,98525
2022-11-01T09:53:04.000Z,98523
2022-11-01T09:54:31.000Z,98527
2022-11-01T09:56:37.000Z,98525
2022-11-01T09:58:03.000Z,98519
2022-11-01T10:00:10.000Z,98518
2022-11-01T10:01:36.000Z,98519
2022-11-01T10:03:43.000Z,98527
2022-11-01T10:05:09.000Z,98530
2022-11-01T10:07:20.000Z,98534
2022-11-01T10:08:46.000Z,98532
2022-11-01T10:10:53.000Z,98543
2022-11-01T10:12:19.000Z,98543
2022-11-01T10:14:25.000Z,98541
2022-11-01T10:15:52.000Z,98542
2022-11-01T10:17:58.000Z,98546
2022-11-01T10:19:25.000Z,98549
2022-11-01T10:21:31.000Z,98546
2022-11-01T10:22:57.000Z,98548
2022-11-01T10:25:03.000Z,98550
2022-11-01T10:26:30.000Z,98552
2022-11-01T10:28:36.000Z,98559
2022-11-01T10:31:27.000Z,98560
2022-11-01T10:32:54.000Z,98562
2022-11-01T10:35:00.000Z,98557
2022-11-01T10:36:26.000Z,98561
2022-11-01T10:38:32.000Z,98556
2022-11-01T10:40:49.000Z,98569
2022-11-01T10:42:55.000Z,98570
2022-11-01T10:44:22.000Z,98570
2022-11-01T10:46:28.000Z,98574
2022-11-01T10:47:54.000Z,98577
2022-11-01T10:50:01.000Z,98577
2022-11-01T10:51:34.000Z,98578
2022-11-01T10:53:40.000Z,98572
2022-11-01T10:55:06.000Z,98578
2022-11-01T10:57:13.000Z,98581
2022-11-01T10:58:39.000Z,98580
2022-11-01T11:00:45.000Z,98580
2022-11-01T11:02:12.000Z,98575
2022-11-01T11:04:18.000Z,98589
2022-11-01T11:05:45.000Z,98579
2022-11-01T11:07:51.000Z,98581
2022-11-01T11:10:42.000Z,98568
2022-11-01T11:12:09.000Z,98561
2022-11-01T11:14:15.000Z,98568
2022-11-01T11:15:41.000Z,98568
2022-11-01T11:17:47.000Z,98566
2022-11-01T11:19:14.000Z,98562
2022-11-01T11:21:20.000Z,98565
2022-11-01T11:22:54.000Z,98566
2022-11-01T11:25:00.000Z,98563
2022-11-01T11:26:26.000Z,98562
2022-11-01T11:28:32.000Z,98562
2022-11-01T11:29:59.000Z,98557
2022-11-01T11:32:05.000Z,98560
2022-11-01T11:33:32.000Z,98567
2022-11-01T11:35:38.000Z,98566
2022-11-01T11:37:04.000Z,98569
2022-11-01T11:39:11.000Z,98571
2022-11-01T11:40:37.000Z,98568
2022-11-01T11:42:43.000Z,98571
2022-11-01T11:44:10.000Z,98565
2022-11-01T11:46:16.000Z,98564
2022-11-01T11:49:07.000Z,98567
2022-11-01T11:50:33.000Z,98572
2022-11-01T11:52:40.000Z,98569
2022-11-01T11:54:06.000Z,98573
2022-11-01T11:56:12.000Z,98572
2022-11-01T11:57:39.000Z,98573
2022-11-01T12:01:12.000Z,98575
2022-11-01T12:03:18.000Z,98574
2022-11-01T12:04:45.000Z,98576
2022-11-01T12:06:51.000Z,98581
2022-11-01T12:08:18.000Z,98582
2022-11-01T12:10:24.000Z,98580
2022-11-01T12:11:50.000Z,98585
2022-11-01T12:13:56.000Z,98579
2022-11-01T12:15:23.000Z,98581
2022-11-01T12:17:29.000Z,98579
2022-11-01T12:18:55.000Z,98582
2022-11-01T12:21:02.000Z,98581
2022-11-01T12:22:28.000Z,98587
2022-11-01T12:24:34.000Z,98584
2022-11-01T12:27:25.000Z,98585
2022-11-01T12:28:52.000Z,98580
2022-11-01T12:30:58.000Z,98577
2022-11-01T12:32:24.000Z,98581
2022-11-01T12:34:30.000Z,98577
2022-11-01T12:35:57.000Z,98577
2022-11-01T12:38:03.000Z,98579
2022-11-01T12:39:31.000Z,98582
2022-11-01T12:41:37.000Z,98575
2022-11-01T12:43:03.000Z,98575
2022-11-01T12:45:09.000Z,98581
2022-11-01T12:46:36.000Z,98581
2022-11-01T12:48:42.000Z,98583
2022-11-01T12:50:09.000Z,98582
2022-11-01T12:52:15.000Z,98585
2022-11-01T12:53:41.000Z,98587
2022-11-01T12:55:48.000Z,98592
2022-11-01T12:57:14.000Z,98594
2022-11-01T12:59:20.000Z,98587
2022-11-01T13:00:47.000Z,98598
2022-11-01T13:02:53.000Z,98591
2022-11-01T13:05:44.000Z,98589
2022-11-01T13:07:10.000Z,98593
2022-11-01T13:09:16.000Z,98590
2022-11-01T13:10:43.000Z,98594
2022-11-01T13:12:50.000Z,98589
2022-11-01T13:14:16.000Z,98591
2022-11-01T13:16:22.000Z,98598
2022-11-01T13:17:49.000Z,98592
2022-11-01T13:19:55.000Z,98592
2022-11-01T13:21:22.000Z,98600
2022-11-01T13:23:28.000Z,98597
2022-11-01T13:24:54.000Z,98604
2022-11-01T13:27:00.000Z,98591
2022-11-01T13:28:27.000Z,98598
2022-11-01T13:30:33.000Z,98594
2022-11-01T13:31:59.000Z,98594
2022-11-01T13:34:05.000Z,98594
2022-11-01T13:35:32.000Z,98592
2022-11-01T13:37:38.000Z,98592
2022-11-01T13:39:05.000Z,98598
2022-11-01T13:41:11.000Z,98594
2022-11-01T13:44:02.000Z,98596
2022-11-01T13:45:28.000Z,98602
2022-11-01T13:47:34.000Z,98592
2022-11-01T13:49:01.000Z,98596
2022-11-01T13:51:07.000Z,98594
2022-11-01T13:52:34.000Z,98598
2022-11-01T13:54:40.000Z,98598
2022-11-01T13:56:06.000Z,98598
2022-11-01T13:58:12.000Z,98598
2022-11-01T13:59:39.000Z,98599
2022-11-01T14:01:45.000Z,98599
2022-11-01T14:03:12.000Z,98598
2022-11-01T14:05:18.000Z,98601
2022-11-01T14:06:44.000Z,98607
2022-11-01T14:08:50.000Z,98608
2022-11-01T14:10:17.000Z,98605
2022-11-01T14:12:23.000Z,98602
2022-11-01T14:13:49.000Z,98603
2022-11-01T14:15:55.000Z,98601
2022-11-01T14:17:22.000Z,98602
2022-11-01T14:19:28.000Z,98600
2022-11-01T14:22:19.000Z,98602
2022-11-01T14:23:46.000Z,98605
2022-11-01T14:25:52.000Z,98597
2022-11-01T14:27:18.000Z,98608
2022-11-01T14:29:24.000Z,98608
2022-11-01T14:30:51.000Z,98612
2022-11-01T14:32:57.000Z,98608
2022-11-01T14:34:23.000Z,98613
2022-11-01T14:36:30.000Z,98617
2022-11-01T14:37:56.000Z,98618
2022-11-01T14:40:02.000Z,98611
2022-11-01T14:41:29.000Z,98619
2022-11-01T14:43:35.000Z,98625
2022-11-01T14:45:01.000Z,98623
2022-11-01T14:47:07.000Z,98624
2022-11-01T14:48:34.000Z,98622
2022-11-01T14:50:40.000Z,98621
2022-11-01T14:52:06.000Z,98624
2022-11-01T14:54:12.000Z,98621
2022-11-01T14:55:40.000Z,98619
2022-11-01T14:57:46.000Z,98621
2022-11-01T15:00:37.000Z,98623
2022-11-01T15:02:03.000Z,98625
2022-11-01T15:04:10.000Z,98626
2022-11-01T15:05:36.000Z,98626
2022-11-01T15:07:42.000Z,98631
2022-11-01T15:09:09.000Z,98628
2022-11-01T15:11:15.000Z,98631
2022-11-01T15:12:42.000Z,98630
2022-11-01T15:14:53.000Z,98628
2022-11-01T15:16:20.000Z,98627
2022-11-01T15:18:26.000Z,98627
2022-11-01T15:19:52.000Z,98628
2022-11-01T15:21:58.000Z,98627
2022-11-01T15:23:25.000Z,98627
2022-11-01T15:25:31.000Z,98624
2022-11-01T15:26:57.000Z,98622
2022-11-01T15:29:04.000Z,98621
2022-11-01T15:30:30.000Z,98626
2022-11-01T15:32:36.000Z,98625
2022-11-01T15:34:03.000Z,98629
2022-11-01T15:36:09.000Z,98630
2022-11-01T15:39:00.000Z,98633
2022-11-01T15:40:27.000Z,98636
2022-11-01T15:42:33.000Z,98636
2022-11-01T15:43:59.000Z,98638
2022-11-01T15:46:05.000Z,98632
2022-11-01T15:47:32.000Z,98636
2022-11-01T15:49:38.000Z,98636
2022-11-01T15:51:05.000Z,98638
2022-11-01T15:53:11.000Z,98632
2022-11-01T15:54:38.000Z,98637
2022-11-01T15:56:44.000Z,98633
2022-11-01T15:58:10.000Z,98639
2022-11-01T16:00:16.000Z,98640
2022-11-01T16:01:43.000Z,98639
2022-11-01T16:03:49.000Z,98638
2022-11-01T16:05:15.000Z,98637
2022-11-01T16:07:22.000Z,98640
2022-11-01T16:08:48.000Z,98642
2022-11-01T16:10:54.000Z,98641
2022-11-01T16:12:21.000Z,98642
2022-11-01T16:14:27.000Z,98647
2022-11-01T16:17:18.000Z,98655
2022-11-01T16:18:44.000Z,98655
2022-11-01T16:20:50.000Z,98658
2022-11-01T16:22:17.000Z,98657
2022-11-01T16:24:23.000Z,98660
2022-11-01T16:25:49.000Z,98654
2022-11-01T16:27:56.000Z,98659
2022-11-01T16:29:22.000Z,98659
2022-11-01T16:31:28.000Z,98660
2022-11-01T16:32:55.000Z,98663
2022-11-01T16:35:01.000Z,98665
2022-11-01T16:36:27.000Z,98663
2022-11-01T16:38:34.000Z,98665
2022-11-01T16:40:00.000Z,98665
2022-11-01T16:42:06.000Z,98666
2022-11-01T16:43:33.000Z,98668
2022-11-01T16:45:39.000Z,98672
2022-11-01T16:47:05.000Z,98677
2022-11-01T16:49:11.000Z,98680
2022-11-01T16:50:38.000Z,98678
2022-11-01T16:52:44.000Z,98680
2022-11-01T16:55:35.000Z,98678
2022-11-01T16:57:03.000Z,98679
2022-11-01T16:59:09.000Z,98679
2022-11-01T17:00:36.000Z,98685
2022-11-01T17:02:42.000Z,98688
2022-11-01T17:04:09.000Z,98691
2022-11-01T17:06:15.000Z,98694
2022-11-01T17:07:41.000Z,98696
2022-11-01T17:09:47.000Z,98688
2022-11-01T17:11:14.000Z,98699
2022-11-01T17:13:20.000Z,98706
2022-11-01T17:14:46.000Z,98711
2022-11-01T17:16:52.000Z,98713
2022-11-01T17:18:19.000Z,98712
2022-11-01T17:20:30.000Z,98718
2022-11-01T17:21:56.000Z,98722
2022-11-01T17:24:02.000Z,98726
2022-11-01T17:25:29.000Z,98726
2022-11-01T17:27:35.000Z,98731
2022-11-01T17:29:01.000Z,98733
2022-11-01T17:31:08.000Z,98728
2022-11-01T17:33:59.000Z,98725
2022-11-01T17:35:25.000Z,98726
2022-11-01T17:37:32.000Z,98729
2022-11-01T17:38:59.000Z,98728
2022-11-01T17:41:05.000Z,98730
2022-11-01T17:42:32.000Z,98733
2022-11-01T17:44:38.000Z,98734
2022-11-01T17:46:04.000Z,98740
2022-11-01T17:48:10.000Z,98737
2022-11-01T17:49:37.000Z,98739
2022-11-01T17:51:43.000Z,98738
2022-11-01T17:53:09.000Z,98735
2022-11-01T17:55:15.000Z,98735
2022-11-01T17:56:42.000Z,98742
2022-11-01T17:58:48.000Z,98743
2022-11-01T18:00:18.000Z,98740
2022-11-01T18:02:24.000Z,98732
2022-11-01T18:03:51.000Z,98735
2022-11-01T18:05:57.000Z,98737
2022-11-01T18:07:24.000Z,98742
2022-11-01T18:09:30.000Z,98743
2022-11-01T18:12:21.000Z,98749
2022-11-01T18:13:47.000Z,98749
2022-11-01T18:15:53.000Z,98744
2022-11-01T18:17:20.000Z,98747
2022-11-01T18:19:26.000Z,98739
2022-11-01T18:20:53.000Z,98740
2022-11-01T18:22:59.000Z,98740
2022-11-01T18:24:25.000Z,98742
2022-11-01T18:26:32.000Z,98741
2022-11-01T18:27:58.000Z,98742
2022-11-01T18:30:04.000Z,98741
2022-11-01T18:31:31.000Z,98742
2022-11-01T18:33:37.000Z,98744
2022-11-01T18:35:03.000Z,98744
2022-11-01T18:37:09.000Z,98751
2022-11-01T18:38:36.000Z,98757
2022-11-01T18:40:42.000Z,98754
2022-11-01T18:42:08.000Z,98762
2022-11-01T18:44:14.000Z,98767
2022-11-01T18:45:41.000Z,98769
2022-11-01T18:48:17.000Z,98772
2022-11-01T18:51:08.000Z,98776
2022-11-01T18:52:34.000Z,98774
2022-11-01T18:54:40.000Z,98777
2022-11-01T18:56:07.000Z,98773
2022-11-01T18:58:13.000Z,98778
2022-11-01T18:59:40.000Z,98781
2022-11-01T19:01:46.000Z,98781
2022-11-01T19:03:13.000Z,98780
2022-11-01T19:05:19.000Z,98786
2022-11-01T19:06:45.000Z,98786
2022-11-01T19:08:51.000Z,98784
2022-11-01T19:10:18.000Z,98785
2022-11-01T19:12:24.000Z,98782
2022-11-01T19:13:54.000Z,98790
2022-11-01T19:16:01.000Z,98789
2022-11-01T19:17:27.000Z,98787
2022-11-01T19:19:33.000Z,98786
2022-11-01T19:21:00.000Z,98786
2022-11-01T19:23:06.000Z,98783
2022-11-01T19:24:32.000Z,98783
2022-11-01T19:26:38.000Z,98781
2022-11-01T19:29:30.000Z,98778
2022-11-01T19:30:56.000Z,98779
2022-11-01T19:33:02.000Z,98777
2022-11-01T19:34:29.000Z,98783
2022-11-01T19:36:35.000Z,98780
2022-11-01T19:38:01.000Z,98780
2022-11-01T19:40:08.000Z,98782
2022-11-01T19:41:35.000Z,98781
2022-11-01T19:43:41.000Z,98783
2022-11-01T19:45:07.000Z,98784
2022-11-01T19:47:13.000Z,98791
2022-11-01T19:48:42.000Z,98789
2022-11-01T19:50:48.000Z,98788
2022-11-01T19:52:15.000Z,98795
2022-11-01T19:54:21.000Z,98794
2022-11-01T19:55:47.000Z,98793
2022-11-01T19:57:54.000Z,98799
2022-11-01T19:59:20.000Z,98798
2022-11-01T20:01:26.000Z,98797
2022-11-01T20:02:53.000Z,98801
2022-11-01T20:04:59.000Z,98799
2022-11-01T20:07:50.000Z,98800
2022-11-01T20:09:17.000Z,98799
2022-11-01T20:11:23.000Z,98796
2022-11-01T20:12:49.000Z,98797
2022-11-01T20:14:55.000Z,98800
2022-11-01T20:16:22.000Z,98801
2022-11-01T20:18:28.000Z,98802
2022-11-01T20:19:54.000Z,98804
2022-11-01T20:22:01.000Z,98802
2022-11-01T20:23:27.000Z,98800
2022-11-01T20:25:33.000Z,98803
2022-11-01T20:27:00.000Z,98807
2022-11-01T20:29:06.000Z,98810
2022-11-01T20:30:32.000Z,98813
2022-11-01T20:32:38.000Z,98817
2022-11-01T20:34:05.000Z,98817
2022-11-01T20:36:11.000Z,98818
2022-11-01T20:37:37.000Z,98819
2022-11-01T20:39:44.000Z,98817
2022-11-01T20:41:10.000Z,98824
2022-11-01T20:43:16.000Z,98820
2022-11-01T20:46:07.000Z,98822
2022-11-01T20:47:34.000Z,98824
2022-11-01T20:49:40.000Z,98829
2022-11-01T20:51:06.000Z,98831
2022-11-01T20:53:12.000Z,98836
2022-11-01T20:54:39.000Z,98834
2022-11-01T20:56:45.000Z,98839
2022-11-01T20:58:12.000Z,98840
2022-11-01T21:00:18.000Z,98842
2022-11-01T21:01:44.000Z,98845
2022-11-01T21:03:51.000Z,98842
2022-11-01T21:05:17.000Z,98842
2022-11-01T21:07:23.000Z,98838
2022-11-01T21:08:50.000Z,98843
2022-11-01T21:10:56.000Z,98847
2022-11-01T21:12:22.000Z,98847
2022-11-01T21:14:29.000Z,98849
2022-11-01T21:15:55.000Z,98850
2022-11-01T21:18:01.000Z,98855
2022-11-01T21:19:28.000Z,98861
2022-11-01T21:21:34.000Z,98861
2022-11-01T21:24:25.000Z,98860
2022-11-01T21:25:52.000Z,98859
2022-11-01T21:27:58.000Z,98858
2022-11-01T21:29:24.000Z,98855
2022-11-01T21:31:30.000Z,98861
2022-11-01T21:32:57.000Z,98861
2022-11-01T21:35:03.000Z,98857
2022-11-01T21:36:29.000Z,98859
2022-11-01T21:38:36.000Z,98865
2022-11-01T21:40:02.000Z,98863
2022-11-01T21:42:12.000Z,98868
2022-11-01T21:43:39.000Z,98868
2022-11-01T21:45:45.000Z,98868
2022-11-01T21:47:11.000Z,98870
2022-11-01T21:49:17.000Z,98868
2022-11-01T21:50:44.000Z,98867
2022-11-01T21:52:50.000Z,98869
2022-11-01T21:54:16.000Z,98864
2022-11-01T21:56:23.000Z,98861
2022-11-01T21:57:49.000Z,98858
2022-11-01T21:59:55.000Z,98866
2022-11-01T22:02:46.000Z,98867
2022-11-01T22:04:13.000Z,98865
2022-11-01T22:06:19.000Z,98864
2022-11-01T22:07:46.000Z,98860
2022-11-01T22:09:52.000Z,98865
2022-11-01T22:11:18.000Z,98863
2022-11-01T22:13:29.000Z,98860
2022-11-01T22:14:56.000Z,98860
2022-11-01T22:17:02.000Z,98859
2022-11-01T22:18:28.000Z,98861
2022-11-01T22:20:35.000Z,98862
2022-11-01T22:22:01.000Z,98858
2022-11-01T22:24:07.000Z,98856
2022-11-01T22:25:34.000Z,98853
2022-11-01T22:27:40.000Z,98855
2022-11-01T22:29:06.000Z,98855
2022-11-01T22:31:12.000Z,98854
2022-11-01T22:32:39.000Z,98851
2022-11-01T22:34:45.000Z,98853
2022-11-01T22:36:11.000Z,98858
2022-11-01T22:38:18.000Z,98858
2022-11-01T22:41:08.000Z,98857
2022-11-01T22:42:35.000Z,98857
2022-11-01T22:44:41.000Z,98855
2022-11-01T22:46:07.000Z,98859
2022-11-01T22:48:13.000Z,98858
2022-11-01T22:49:40.000Z,98854
2022-11-01T22:51:46.000Z,98858
2022-11-01T22:53:13.000Z,98860
2022-11-01T22:55:19.000Z,98863
2022-11-01T22:56:45.000Z,98864
2022-11-01T22:58:51.000Z,98861
2022-11-01T23:02:24.000Z,98858
2022-11-01T23:03:51.000Z,98853
2022-11-01T23:05:57.000Z,98857
2022-11-01T23:07:23.000Z,98854
2022-11-01T23:09:29.000Z,98858
2022-11-01T23:10:56.000Z,98852
2022-11-01T23:13:02.000Z,98855
2022-11-01T23:14:29.000Z,98849
2022-11-01T23:16:35.000Z,98850
2022-11-01T23:19:26.000Z,98850
2022-11-01T23:20:53.000Z,98847
2022-11-01T23:22:59.000Z,98850
2022-11-01T23:24:26.000Z,98848
2022-11-01T23:26:32.000Z,98848
2022-11-01T23:27:58.000Z,98847
2022-11-01T23:30:05.000Z,98851
2022-11-01T23:31:31.000Z,98847
2022-11-01T23:33:37.000Z,98846
2022-11-01T23:35:04.000Z,98846
2022-11-01T23:37:10.000Z,98843
2022-11-01T23:38:36.000Z,98844